Time;durP1;ratioP1;P1;durP2;ratioP2;P2;SDS_P1;SDS_P2;PMS_P1;PMS_P2;Temp;Humidity;BMP_temperature;BMP_pressure;BME280_temperature;BME280_humidity;BME280_pressure;Samples;Min_cycle;Max_cycle;Signal;HPM_P1;HPM_P2
2022/03/13 00:00:07;;;;;;;16.10;6.47;;;0.40;77.50;;;;;;5013494;28;20259;-65
2022/03/13 00:02:32;;;;;;;17.63;7.57;;;0.40;77.50;;;;;;5013384;28;20182;-65
2022/03/13 00:04:59;;;;;;;15.23;7.23;;;0.30;77.50;;;;;;5013383;28;20278;-66
2022/03/13 00:07:25;;;;;;;19.20;7.30;;;0.40;77.90;;;;;;5013208;28;20276;-65
2022/03/13 00:09:52;;;;;;;19.27;7.40;;;0.30;78.40;;;;;;5013338;28;20216;-65
2022/03/13 00:12:31;;;;;;;19.90;7.50;;;0.30;78.60;;;;;;5013202;28;20202;-66
2022/03/13 00:15:03;;;;;;;17.43;7.40;;;0.40;79.50;;;;;;5013358;28;20197;-65
2022/03/13 00:17:30;;;;;;;20.70;7.70;;;0.40;80.10;;;;;;5018465;28;20326;-65
2022/03/13 00:20:00;;;;;;;21.50;8.03;;;0.30;80.70;;;;;;5031425;28;20167;-66
2022/03/13 00:22:31;;;;;;;17.77;8.33;;;0.30;80.80;;;;;;5031041;28;20226;-65
2022/03/13 00:24:59;;;;;;;21.30;8.87;;;0.20;81.10;;;;;;5031428;28;20184;-66
2022/03/13 00:27:29;;;;;;;18.07;8.03;;;0.20;81.20;;;;;;5031571;28;20252;-66
2022/03/13 00:29:55;;;;;;;24.13;8.60;;;0.20;81.50;;;;;;5032287;28;20156;-66
2022/03/13 00:32:22;;;;;;;22.97;8.53;;;0.20;81.90;;;;;;5014849;28;20180;-65
2022/03/13 00:34:47;;;;;;;24.60;10.07;;;0.20;82.00;;;;;;5014728;28;20175;-65
2022/03/13 00:37:13;;;;;;;25.10;8.43;;;0.20;82.10;;;;;;5032740;28;20227;-65
2022/03/13 00:39:40;;;;;;;25.17;8.80;;;0.10;81.90;;;;;;5014651;28;20557;-64
2022/03/13 00:42:07;;;;;;;19.77;8.20;;;0.20;82.30;;;;;;5024741;28;20214;-65
2022/03/13 00:44:33;;;;;;;18.90;8.27;;;0.20;82.70;;;;;;4994653;28;20183;-65
2022/03/13 00:46:59;;;;;;;22.37;8.03;;;0.20;82.90;;;;;;4994754;28;20241;-65
2022/03/13 00:49:24;;;;;;;14.47;6.13;;;0.20;83.60;;;;;;5012486;28;20190;-66
2022/03/13 00:51:50;;;;;;;17.80;7.70;;;0.10;84.10;;;;;;5012207;28;20177;-65
2022/03/13 00:54:16;;;;;;;20.53;8.23;;;0.20;84.30;;;;;;5012712;28;20190;-65
2022/03/13 00:56:42;;;;;;;19.07;8.57;;;0.10;84.60;;;;;;5012260;28;20650;-65
2022/03/13 00:59:08;;;;;;;23.23;8.57;;;0.10;84.60;;;;;;5012067;28;20183;-66
2022/03/13 01:01:34;;;;;;;16.33;7.63;;;0.10;84.40;;;;;;5012297;28;20187;-65
2022/03/13 01:03:59;;;;;;;19.03;7.90;;;0.20;84.70;;;;;;5012589;28;20503;-65
2022/03/13 01:06:25;;;;;;;26.90;9.83;;;0.20;84.80;;;;;;5012128;28;20592;-66
2022/03/13 01:08:52;;;;;;;18.97;8.07;;;0.20;85.50;;;;;;5012556;28;20248;-65
2022/03/13 01:11:20;;;;;;;21.23;8.50;;;0.10;85.50;;;;;;5012465;28;20620;-66
2022/03/13 01:13:47;;;;;;;19.47;8.87;;;0.10;85.70;;;;;;5011716;28;20171;-65
2022/03/13 01:16:14;;;;;;;21.07;8.20;;;0.10;85.90;;;;;;5012206;28;20259;-65
2022/03/13 01:18:47;;;;;;;24.47;9.37;;;0.10;86.00;;;;;;5030407;28;20241;-67
2022/03/13 01:21:14;;;;;;;20.83;8.87;;;0.10;86.20;;;;;;5032223;28;20172;-67
2022/03/13 01:23:41;;;;;;;18.00;8.30;;;0.10;85.80;;;;;;5031925;28;20177;-67
2022/03/13 01:26:36;;;;;;;22.00;8.70;;;0.20;86.10;;;;;;5014395;28;20216;-66
2022/03/13 01:29:07;;;;;;;18.50;8.83;;;0.20;86.40;;;;;;5028989;28;20199;-65
2022/03/13 01:31:37;;;;;;;16.90;8.43;;;0.20;86.70;;;;;;5014098;28;20215;-66
2022/03/13 01:34:04;;;;;;;20.00;8.57;;;0.20;86.90;;;;;;5031795;28;20267;-67
2022/03/13 01:36:30;;;;;;;22.80;8.43;;;0.20;87.20;;;;;;5031745;28;20179;-65
2022/03/13 01:38:58;;;;;;;20.13;8.50;;;0.20;87.90;;;;;;5032988;28;20225;-67
2022/03/13 01:41:27;;;;;;;16.33;7.80;;;0.20;88.10;;;;;;5036676;28;20181;-66
2022/03/13 01:43:53;;;;;;;15.47;7.43;;;0.20;88.60;;;;;;5018316;28;20217;-65
2022/03/13 01:46:19;;;;;;;24.43;7.70;;;0.20;89.40;;;;;;5000967;28;20580;-67
2022/03/13 01:49:11;;;;;;;17.53;7.23;;;0.10;89.90;;;;;;5000933;28;20283;-65
2022/03/13 01:51:38;;;;;;;16.20;7.07;;;0.10;90.30;;;;;;5013830;28;20262;-64
2022/03/13 01:54:11;;;;;;;17.33;7.17;;;0.10;90.70;;;;;;5001278;28;20180;-67
2022/03/13 01:56:38;;;;;;;16.67;6.87;;;0.00;91.00;;;;;;5018068;28;20258;-66
2022/03/13 01:59:06;;;;;;;17.90;6.43;;;0.00;91.40;;;;;;5018468;28;20188;-67
2022/03/13 02:01:32;;;;;;;16.47;6.13;;;0.00;91.40;;;;;;5018179;28;20329;-65
2022/03/13 02:03:58;;;;;;;15.53;6.33;;;0.00;91.60;;;;;;5018300;28;20262;-66
2022/03/13 02:06:24;;;;;;;14.90;5.60;;;0.00;91.90;;;;;;5018522;28;20288;-67
2022/03/13 02:08:51;;;;;;;12.27;5.20;;;-0.10;92.00;;;;;;5024901;28;20193;-66
2022/03/13 02:11:22;;;;;;;13.13;6.00;;;-0.10;92.40;;;;;;5038222;28;20199;-66
2022/03/13 02:13:49;;;;;;;12.60;5.37;;;-0.10;92.60;;;;;;5037484;28;20289;-66
2022/03/13 02:16:17;;;;;;;11.53;5.53;;;-0.20;93.00;;;;;;5020391;28;20183;-66
2022/03/13 02:18:48;;;;;;;13.97;5.60;;;-0.20;93.20;;;;;;5001436;28;20242;-66
2022/03/13 02:21:15;;;;;;;10.77;5.10;;;-0.20;93.70;;;;;;5000670;28;20175;-66
2022/03/13 02:23:41;;;;;;;11.23;5.40;;;-0.30;94.00;;;;;;5033193;28;20669;-67
2022/03/13 02:26:07;;;;;;;12.30;5.70;;;-0.30;94.20;;;;;;5037616;28;20190;-66
2022/03/13 02:28:36;;;;;;;13.13;5.43;;;-0.30;94.40;;;;;;5019964;28;20191;-65
2022/03/13 02:31:05;;;;;;;14.30;5.60;;;-0.30;94.60;;;;;;5038048;28;20195;-66
2022/03/13 02:33:31;;;;;;;16.30;6.60;;;-0.30;94.80;;;;;;5038074;28;20245;-66
2022/03/13 02:36:03;;;;;;;13.20;5.63;;;-0.30;95.00;;;;;;5037583;28;20191;-67
2022/03/13 02:38:29;;;;;;;13.03;6.17;;;-0.20;93.70;;;;;;5037625;28;20297;-66
2022/03/13 02:40:57;;;;;;;16.30;6.33;;;-0.10;93.50;;;;;;5037561;28;20201;-65
2022/03/13 02:43:23;;;;;;;17.77;6.63;;;-0.10;92.70;;;;;;5019549;28;20175;-66
2022/03/13 02:45:52;;;;;;;17.30;6.87;;;0.00;92.90;;;;;;5017084;28;20242;-66
2022/03/13 02:48:18;;;;;;;13.67;6.20;;;0.00;92.60;;;;;;5018126;28;20220;-65
2022/03/13 02:50:45;;;;;;;15.87;7.50;;;0.00;92.70;;;;;;4998490;28;20282;-66
2022/03/13 02:53:12;;;;;;;13.17;5.57;;;0.00;92.60;;;;;;5015029;28;20226;-65
2022/03/13 02:55:38;;;;;;;13.63;6.17;;;0.00;92.70;;;;;;5014552;28;20294;-65
2022/03/13 02:58:05;;;;;;;16.50;6.20;;;0.00;93.00;;;;;;5014870;28;20614;-65
2022/03/13 03:00:57;;;;;;;11.53;5.63;;;-0.10;93.10;;;;;;5014738;28;20181;-67
2022/03/13 03:03:23;;;;;;;13.50;5.73;;;0.00;93.40;;;;;;5011714;28;20206;-67
2022/03/13 03:05:50;;;;;;;17.30;5.63;;;-0.10;93.60;;;;;;5014401;28;20274;-67
2022/03/13 03:08:16;;;;;;;13.53;5.03;;;-0.10;93.90;;;;;;4997090;28;20188;-66
2022/03/13 03:10:42;;;;;;;10.00;4.50;;;-0.10;94.30;;;;;;5014278;28;20659;-66
2022/03/13 03:13:09;;;;;;;13.53;6.27;;;-0.10;94.40;;;;;;5014719;28;20176;-66
2022/03/13 03:15:35;;;;;;;10.50;5.23;;;-0.10;94.90;;;;;;5014226;28;20555;-66
2022/03/13 03:18:04;;;;;;;12.77;5.27;;;-0.10;95.10;;;;;;5027624;28;20670;-65
2022/03/13 03:20:30;;;;;;;16.30;6.03;;;-0.10;95.20;;;;;;5033795;28;20611;-66
2022/03/13 03:22:55;;;;;;;16.10;5.67;;;-0.10;95.40;;;;;;5033977;28;20202;-66
2022/03/13 03:25:24;;;;;;;16.23;6.27;;;-0.10;95.80;;;;;;5033964;28;20210;-65
2022/03/13 03:27:56;;;;;;;11.63;5.77;;;-0.10;96.00;;;;;;5034059;28;20270;-65
2022/03/13 03:30:24;;;;;;;15.07;6.60;;;-0.10;96.40;;;;;;5034064;28;20159;-64
2022/03/13 03:32:50;;;;;;;14.27;5.77;;;-0.10;96.90;;;;;;5033639;28;20182;-66
2022/03/13 03:35:20;;;;;;;12.93;6.70;;;-0.20;97.40;;;;;;5033894;28;20179;-66
2022/03/13 03:37:47;;;;;;;15.83;5.87;;;-0.20;98.00;;;;;;5033599;28;20202;-65
2022/03/13 03:40:13;;;;;;;14.40;6.13;;;-0.20;98.50;;;;;;5033434;28;20179;-66
2022/03/13 03:42:40;;;;;;;14.43;5.80;;;-0.20;99.10;;;;;;5021351;28;20187;-65
2022/03/13 03:45:06;;;;;;;13.50;6.50;;;-0.20;99.80;;;;;;5013819;28;20628;-65
2022/03/13 03:47:32;;;;;;;15.00;6.10;;;-0.30;99.90;;;;;;4995821;28;20242;-66
2022/03/13 03:49:59;;;;;;;15.70;6.07;;;-0.30;99.90;;;;;;4996167;28;20184;-66
2022/03/13 03:52:24;;;;;;;13.37;5.67;;;-0.30;99.90;;;;;;4996140;28;20185;-65
2022/03/13 03:54:51;;;;;;;14.40;6.80;;;-0.40;99.90;;;;;;5013382;28;20175;-65
2022/03/13 03:57:19;;;;;;;13.90;6.07;;;-0.40;99.90;;;;;;5013594;28;20305;-66
2022/03/13 03:59:45;;;;;;;12.73;5.77;;;-0.40;99.90;;;;;;5013246;28;20183;-66
2022/03/13 04:02:11;;;;;;;13.90;7.20;;;-0.40;99.90;;;;;;5012570;28;20638;-65
2022/03/13 04:04:37;;;;;;;13.67;5.67;;;-0.40;99.90;;;;;;5013167;28;20270;-64
2022/03/13 04:07:03;;;;;;;13.13;6.23;;;-0.40;99.90;;;;;;5013362;28;20324;-65
2022/03/13 04:09:28;;;;;;;14.03;5.73;;;-0.40;99.90;;;;;;5013111;28;20183;-65
2022/03/13 04:11:54;;;;;;;14.37;6.20;;;-0.40;99.90;;;;;;4995417;28;20190;-65
2022/03/13 04:14:21;;;;;;;19.67;6.90;;;-0.40;99.90;;;;;;4979367;28;20191;-65
2022/03/13 04:16:47;;;;;;;13.83;5.90;;;-0.40;99.90;;;;;;5015643;28;20278;-64
2022/03/13 04:19:13;;;;;;;13.93;5.83;;;-0.40;99.90;;;;;;5015373;28;20265;-65
2022/03/13 04:21:41;;;;;;;14.93;5.87;;;-0.40;99.90;;;;;;5032297;28;20233;-64
2022/03/13 04:24:08;;;;;;;12.67;5.50;;;-0.30;99.90;;;;;;5032390;28;20218;-65
2022/03/13 04:26:34;;;;;;;16.20;6.13;;;-0.30;99.90;;;;;;5032781;28;20182;-65
2022/03/13 04:29:00;;;;;;;17.73;6.33;;;-0.30;99.90;;;;;;5032105;28;20190;-65
2022/03/13 04:31:25;;;;;;;14.97;6.87;;;-0.30;99.90;;;;;;5032644;28;20201;-65
2022/03/13 04:33:51;;;;;;;13.53;5.83;;;-0.30;99.90;;;;;;5014834;28;20626;-65
2022/03/13 04:36:21;;;;;;;18.50;6.47;;;-0.30;99.90;;;;;;5032584;28;20709;-65
2022/03/13 04:38:47;;;;;;;13.80;6.17;;;-0.30;99.90;;;;;;5032221;28;20260;-64
2022/03/13 04:41:13;;;;;;;23.27;7.03;;;-0.30;99.90;;;;;;5032251;28;20187;-65
2022/03/13 04:43:39;;;;;;;19.10;6.40;;;-0.30;99.90;;;;;;5013120;28;20509;-64
2022/03/13 04:46:05;;;;;;;22.97;8.00;;;-0.30;99.90;;;;;;5012613;28;20239;-65
2022/03/13 04:48:32;;;;;;;17.37;7.13;;;-0.30;99.90;;;;;;5012049;28;20176;-65
2022/03/13 04:50:59;;;;;;;12.03;6.03;;;-0.30;99.90;;;;;;5011957;28;20187;-65
2022/03/13 04:53:25;;;;;;;15.03;6.93;;;-0.30;99.90;;;;;;5012576;28;20329;-65
2022/03/13 04:55:51;;;;;;;23.10;7.47;;;-0.30;99.90;;;;;;5013205;28;20218;-66
2022/03/13 04:58:18;;;;;;;17.83;7.30;;;-0.30;99.90;;;;;;5012154;28;20246;-65
2022/03/13 05:00:47;;;;;;;16.97;6.60;;;-0.30;99.90;;;;;;5012544;28;20179;-65
2022/03/13 05:03:14;;;;;;;17.50;7.50;;;-0.30;99.90;;;;;;4994766;28;20672;-66
2022/03/13 05:05:40;;;;;;;17.30;7.63;;;-0.30;99.90;;;;;;4994673;28;20532;-66
2022/03/13 05:08:16;;;;;;;21.03;8.57;;;-0.30;99.90;;;;;;5012117;28;20180;-65
2022/03/13 05:10:44;;;;;;;21.03;7.57;;;-0.30;99.90;;;;;;5011975;28;20194;-64
2022/03/13 05:13:12;;;;;;;20.83;7.63;;;-0.20;99.90;;;;;;5012255;28;20627;-65
2022/03/13 05:15:39;;;;;;;18.23;8.23;;;-0.20;99.90;;;;;;4994095;28;20265;-65
2022/03/13 05:18:05;;;;;;;21.67;8.13;;;-0.20;99.90;;;;;;5024812;28;20345;-65
2022/03/13 05:20:31;;;;;;;23.63;8.00;;;-0.20;99.90;;;;;;5014087;28;20537;-66
2022/03/13 05:22:57;;;;;;;17.17;7.77;;;-0.10;99.90;;;;;;5031339;28;20535;-66
2022/03/13 05:25:24;;;;;;;19.47;6.57;;;-0.10;99.90;;;;;;5031270;28;20611;-66
2022/03/13 05:27:52;;;;;;;19.13;8.00;;;-0.10;99.90;;;;;;5031315;28;20209;-66
2022/03/13 05:30:20;;;;;;;25.53;7.70;;;-0.10;99.90;;;;;;5031310;28;20187;-66
2022/03/13 05:32:46;;;;;;;23.27;7.27;;;0.00;99.90;;;;;;5031432;28;20167;-65
2022/03/13 05:35:13;;;;;;;25.00;8.83;;;0.10;99.90;;;;;;5031386;28;20179;-67
2022/03/13 05:37:39;;;;;;;26.33;8.57;;;0.10;99.90;;;;;;5031859;28;20211;-66
2022/03/13 05:40:06;;;;;;;26.93;8.17;;;0.20;99.90;;;;;;5031557;28;20619;-65
2022/03/13 05:42:32;;;;;;;23.37;7.73;;;0.20;99.90;;;;;;5020349;28;20212;-67
2022/03/13 05:44:57;;;;;;;19.63;7.83;;;0.30;99.90;;;;;;5011604;28;20226;-65
2022/03/13 05:47:23;;;;;;;18.57;7.50;;;0.30;99.90;;;;;;5012086;28;20231;-65
2022/03/13 05:49:49;;;;;;;17.73;7.77;;;0.30;99.90;;;;;;4993487;28;20188;-66
2022/03/13 05:52:16;;;;;;;16.97;7.20;;;0.30;99.90;;;;;;5011933;28;20519;-66
2022/03/13 05:54:42;;;;;;;16.40;7.23;;;0.20;99.90;;;;;;5011541;28;20179;-66
2022/03/13 05:57:10;;;;;;;18.27;7.03;;;0.20;99.90;;;;;;5011842;28;20207;-65
2022/03/13 05:59:37;;;;;;;18.03;8.67;;;0.10;99.90;;;;;;5011544;28;20179;-66
2022/03/13 06:02:07;;;;;;;14.07;7.80;;;0.10;99.90;;;;;;5011478;28;20191;-66
2022/03/13 06:04:37;;;;;;;20.77;9.50;;;0.10;99.90;;;;;;5011532;28;20187;-66
2022/03/13 06:07:05;;;;;;;20.00;7.97;;;0.10;99.90;;;;;;4993878;28;20636;-66
2022/03/13 06:09:32;;;;;;;19.33;8.60;;;0.20;99.90;;;;;;5011685;28;20280;-65
2022/03/13 06:11:59;;;;;;;19.20;8.33;;;0.20;99.90;;;;;;5011508;28;20224;-66
2022/03/13 06:14:25;;;;;;;17.27;8.50;;;0.30;99.90;;;;;;5011489;28;20180;-65
2022/03/13 06:16:51;;;;;;;16.03;8.67;;;0.40;99.90;;;;;;5014448;28;20226;-65
2022/03/13 06:19:16;;;;;;;20.87;9.33;;;0.40;99.90;;;;;;5031392;28;20260;-67
2022/03/13 06:21:42;;;;;;;20.27;8.97;;;0.50;99.90;;;;;;5013594;28;20177;-66
2022/03/13 06:24:08;;;;;;;21.90;8.60;;;0.60;99.90;;;;;;5030657;28;20188;-66
2022/03/13 06:26:36;;;;;;;18.53;8.37;;;0.70;99.90;;;;;;5032511;28;20525;-65
2022/03/13 06:29:02;;;;;;;20.47;8.27;;;0.70;99.90;;;;;;5034575;28;20585;-64
2022/03/13 06:31:28;;;;;;;16.83;7.47;;;0.70;99.90;;;;;;5034607;28;20544;-66
2022/03/13 06:33:53;;;;;;;21.97;11.37;;;0.70;99.90;;;;;;5034193;28;20192;-65
2022/03/13 06:36:19;;;;;;;21.23;9.10;;;0.80;99.90;;;;;;5034627;28;20250;-66
2022/03/13 06:38:45;;;;;;;18.77;8.93;;;0.80;99.90;;;;;;5034558;28;20628;-66
2022/03/13 06:41:11;;;;;;;21.53;8.80;;;0.80;99.90;;;;;;5016611;28;20260;-66
2022/03/13 06:43:37;;;;;;;18.93;8.90;;;0.80;99.90;;;;;;4997125;28;20877;-66
2022/03/13 06:46:03;;;;;;;21.53;9.73;;;0.80;99.90;;;;;;5013932;28;20735;-66
2022/03/13 06:48:31;;;;;;;21.57;9.53;;;0.90;99.90;;;;;;4997157;28;20180;-66
2022/03/13 06:50:57;;;;;;;20.07;10.00;;;1.00;99.90;;;;;;5013906;28;20188;-66
2022/03/13 06:53:23;;;;;;;21.47;9.53;;;0.90;99.90;;;;;;5014889;28;20177;-66
2022/03/13 06:55:52;;;;;;;21.23;9.60;;;0.90;99.90;;;;;;5014437;28;20227;-65
2022/03/13 06:58:19;;;;;;;19.60;9.27;;;0.90;99.90;;;;;;5014626;28;20579;-65
2022/03/13 07:00:45;;;;;;;22.13;9.20;;;1.00;99.90;;;;;;5014383;28;20626;-67
2022/03/13 07:03:13;;;;;;;21.53;10.13;;;1.00;99.90;;;;;;4996816;28;20181;-65
2022/03/13 07:05:39;;;;;;;21.30;9.63;;;1.00;99.90;;;;;;5014218;28;20200;-66
2022/03/13 07:08:05;;;;;;;23.07;10.17;;;1.00;99.90;;;;;;5013926;28;20185;-66
2022/03/13 07:10:30;;;;;;;23.87;9.70;;;1.20;99.90;;;;;;5013970;28;20319;-66
2022/03/13 07:12:56;;;;;;;21.97;10.70;;;1.30;99.90;;;;;;4996215;28;20176;-67
2022/03/13 07:15:22;;;;;;;25.47;10.90;;;1.50;99.90;;;;;;5013599;28;20204;-66
2022/03/13 07:17:48;;;;;;;22.90;10.33;;;1.50;99.90;;;;;;5025160;28;20685;-65
2022/03/13 07:20:15;;;;;;;25.67;11.07;;;1.60;99.90;;;;;;5016223;28;20322;-65
2022/03/13 07:22:42;;;;;;;25.37;10.63;;;1.80;99.90;;;;;;5033897;28;20233;-66
2022/03/13 07:25:09;;;;;;;19.20;10.13;;;1.90;99.90;;;;;;5015253;28;20202;-67
2022/03/13 07:27:36;;;;;;;23.50;11.20;;;1.80;99.90;;;;;;5015736;28;20191;-66
2022/03/13 07:30:03;;;;;;;23.90;9.97;;;1.90;99.90;;;;;;5027167;28;20199;-68
2022/03/13 07:32:29;;;;;;;27.03;12.00;;;2.00;99.90;;;;;;5022927;28;20502;-60
2022/03/13 07:34:54;;;;;;;26.77;10.07;;;2.10;99.90;;;;;;5015475;28;20183;-61
2022/03/13 07:37:20;;;;;;;25.20;10.17;;;2.20;99.90;;;;;;5013239;28;20217;-61
2022/03/13 07:39:47;;;;;;;21.70;10.07;;;2.30;99.90;;;;;;5013878;28;20257;-62
2022/03/13 07:42:14;;;;;;;26.90;11.83;;;2.40;99.90;;;;;;5016453;28;20185;-64
2022/03/13 07:44:40;;;;;;;31.23;10.13;;;2.60;99.90;;;;;;5023140;28;20655;-60
2022/03/13 07:47:06;;;;;;;23.47;10.07;;;2.60;99.90;;;;;;5013288;28;20230;-61
2022/03/13 07:49:32;;;;;;;22.03;9.53;;;2.60;99.90;;;;;;5013414;28;20501;-60
2022/03/13 07:51:58;;;;;;;65.63;12.40;;;2.50;99.90;;;;;;5012478;28;20182;-59
2022/03/13 07:54:23;;;;;;;41.20;11.87;;;2.60;99.90;;;;;;5012821;28;20212;-59
2022/03/13 07:56:49;;;;;;;66.13;12.47;;;2.90;99.90;;;;;;4995201;28;20183;-61
2022/03/13 07:59:15;;;;;;;38.30;11.67;;;3.00;99.90;;;;;;5011853;28;20562;-60
2022/03/13 08:01:41;;;;;;;44.27;12.07;;;2.80;99.90;;;;;;5012692;28;20194;-64
2022/03/13 08:04:07;;;;;;;26.17;10.80;;;2.80;99.90;;;;;;5027246;28;20197;-65
2022/03/13 08:06:36;;;;;;;41.33;11.83;;;2.80;99.90;;;;;;5014476;28;20240;-62
2022/03/13 08:09:03;;;;;;;42.20;9.67;;;3.10;99.90;;;;;;4998363;28;20190;-59
2022/03/13 08:11:29;;;;;;;25.77;10.20;;;3.20;99.40;;;;;;5032064;28;20244;-60
2022/03/13 08:13:55;;;;;;;28.60;10.23;;;3.00;98.90;;;;;;5016912;28;20594;-60
2022/03/13 08:16:21;;;;;;;25.17;8.57;;;2.90;98.50;;;;;;5012632;28;20195;-59
2022/03/13 08:18:47;;;;;;;33.90;12.30;;;2.80;98.50;;;;;;5031923;28;20222;-56
2022/03/13 08:21:13;;;;;;;24.23;11.30;;;2.70;98.80;;;;;;5031392;28;20650;-58
2022/03/13 08:23:39;;;;;;;27.83;10.03;;;2.70;98.90;;;;;;5031946;28;20660;-59
2022/03/13 08:26:05;;;;;;;29.30;11.80;;;2.90;99.00;;;;;;5031955;28;20190;-60
2022/03/13 08:28:32;;;;;;;30.43;11.80;;;2.90;98.90;;;;;;5031578;28;20187;-62
2022/03/13 08:30:58;;;;;;;27.47;10.93;;;3.00;98.70;;;;;;5032014;28;20289;-63
2022/03/13 08:33:24;;;;;;;38.67;12.33;;;2.80;98.50;;;;;;5032253;28;20167;-63
2022/03/13 08:35:50;;;;;;;31.00;11.47;;;3.00;99.30;;;;;;5031598;28;20179;-66
2022/03/13 08:38:16;;;;;;;25.63;11.67;;;3.30;98.40;;;;;;5031367;28;20215;-61
2022/03/13 08:40:42;;;;;;;30.70;10.13;;;3.50;97.80;;;;;;5031962;28;20666;-61
2022/03/13 08:43:08;;;;;;;19.80;9.57;;;3.70;97.60;;;;;;5023718;28;20187;-62
2022/03/13 08:45:33;;;;;;;27.97;11.33;;;3.80;97.10;;;;;;5031429;28;20654;-66
2022/03/13 08:47:59;;;;;;;22.47;10.43;;;3.50;97.00;;;;;;5030843;28;20190;-62
2022/03/13 08:50:25;;;;;;;26.73;12.00;;;3.70;96.60;;;;;;5031081;28;20225;-62
2022/03/13 08:52:50;;;;;;;31.63;11.93;;;3.40;96.60;;;;;;5030554;28;20641;-62
2022/03/13 08:55:18;;;;;;;27.70;12.20;;;3.60;97.30;;;;;;5030697;28;20194;-62
2022/03/13 08:57:45;;;;;;;34.27;12.30;;;4.00;96.90;;;;;;5031686;28;20251;-63
2022/03/13 09:00:16;;;;;;;24.87;12.00;;;4.40;95.60;;;;;;5031185;28;20186;-69
2022/03/13 09:02:45;;;;;;;25.73;11.80;;;4.30;93.90;;;;;;5022614;28;20262;-61
2022/03/13 09:05:11;;;;;;;28.90;11.63;;;4.10;94.40;;;;;;5010899;28;20543;-62
2022/03/13 09:07:37;;;;;;;21.37;9.27;;;4.30;94.30;;;;;;5020634;28;20190;-62
2022/03/13 09:10:07;;;;;;;25.57;11.03;;;4.30;93.40;;;;;;5019166;28;20175;-62
2022/03/13 09:12:33;;;;;;;33.03;13.33;;;4.30;93.90;;;;;;5020652;28;20273;-62
2022/03/13 09:15:00;;;;;;;23.03;11.83;;;4.00;93.80;;;;;;5019536;28;20219;-63
2022/03/13 09:17:26;;;;;;;25.47;12.43;;;3.80;93.20;;;;;;5008007;28;20220;-61
2022/03/13 09:19:53;;;;;;;23.57;11.97;;;3.80;93.70;;;;;;5021097;28;20175;-61
2022/03/13 09:22:20;;;;;;;31.50;13.80;;;3.90;93.50;;;;;;5016536;28;20245;-60
2022/03/13 09:24:46;;;;;;;28.83;13.03;;;4.00;93.70;;;;;;5011271;28;20242;-62
2022/03/13 09:27:13;;;;;;;29.37;12.67;;;4.00;92.60;;;;;;5010751;28;20621;-65
2022/03/13 09:29:39;;;;;;;25.70;11.80;;;3.90;92.70;;;;;;5013363;28;20196;-62
2022/03/13 09:32:06;;;;;;;28.53;12.53;;;3.90;92.60;;;;;;5018346;28;20195;-61
2022/03/13 09:34:32;;;;;;;30.63;12.83;;;4.00;92.30;;;;;;5019227;28;20617;-59
2022/03/13 09:36:59;;;;;;;26.40;11.83;;;4.10;92.80;;;;;;5010829;28;20175;-63
2022/03/13 09:39:25;;;;;;;26.27;11.53;;;4.20;92.50;;;;;;5019539;28;20545;-65
2022/03/13 09:41:52;;;;;;;23.47;11.37;;;4.10;92.20;;;;;;5010110;28;20212;-68
2022/03/13 09:44:19;;;;;;;28.60;15.33;;;4.10;91.70;;;;;;5026524;28;20692;-66
2022/03/13 09:46:44;;;;;;;30.50;12.63;;;3.90;91.70;;;;;;5002241;28;20230;-64
2022/03/13 09:49:10;;;;;;;36.17;12.80;;;4.00;92.10;;;;;;5022369;28;20184;-62
2022/03/13 09:51:36;;;;;;;26.87;12.20;;;4.20;91.80;;;;;;5019384;28;20203;-63
2022/03/13 09:54:02;;;;;;;21.43;10.70;;;4.50;91.50;;;;;;5022382;28;20637;-63
2022/03/13 09:56:29;;;;;;;20.67;10.03;;;4.70;91.00;;;;;;5027831;28;20198;-64
2022/03/13 09:58:55;;;;;;;21.20;10.57;;;4.40;90.30;;;;;;5008933;28;20668;-60
2022/03/13 10:01:21;;;;;;;26.40;10.13;;;4.10;90.10;;;;;;5021655;28;20191;-65
2022/03/13 10:03:46;;;;;;;27.87;13.00;;;3.70;90.50;;;;;;5022791;28;20174;-64
2022/03/13 10:06:13;;;;;;;32.00;11.60;;;3.90;91.30;;;;;;5025008;28;20209;-59
2022/03/13 10:08:38;;;;;;;20.83;9.77;;;4.20;91.40;;;;;;5026002;28;20681;-63
2022/03/13 10:11:04;;;;;;;17.37;7.50;;;4.40;90.20;;;;;;5013390;28;20203;-63
2022/03/13 10:13:46;;;;;;;33.70;13.33;;;4.60;89.20;;;;;;5015685;28;20190;-59
2022/03/13 10:16:19;;;;;;;38.57;13.37;;;4.60;89.80;;;;;;5022729;28;20278;-60
2022/03/13 10:18:45;;;;;;;21.93;10.93;;;4.60;88.10;;;;;;5031783;28;20235;-65
2022/03/13 10:21:13;;;;;;;21.63;10.47;;;4.60;87.60;;;;;;5034478;28;20257;-66
2022/03/13 10:23:40;;;;;;;24.60;8.87;;;4.20;87.20;;;;;;5032802;28;20665;-67
2022/03/13 10:26:07;;;;;;;16.87;8.50;;;4.30;88.10;;;;;;5025097;28;20182;-64
2022/03/13 10:28:40;;;;;;;19.77;9.03;;;4.30;86.50;;;;;;5029006;28;20213;-66
2022/03/13 10:31:07;;;;;;;28.37;10.17;;;4.60;87.40;;;;;;5022284;28;20189;-67
2022/03/13 10:33:52;;;;;;;25.87;10.27;;;4.90;86.60;;;;;;5023375;28;20517;-68
2022/03/13 10:36:31;;;;;;;20.73;9.53;;;4.80;84.90;;;;;;5024196;28;20191;-66
2022/03/13 10:38:58;;;;;;;21.70;9.43;;;4.80;85.20;;;;;;5020001;28;20223;-65
2022/03/13 10:41:44;;;;;;;23.27;9.57;;;4.90;85.20;;;;;;5018950;28;20242;-67
2022/03/13 10:44:25;;;;;;;19.87;9.00;;;4.60;85.40;;;;;;4999306;28;20257;-61
2022/03/13 10:47:05;;;;;;;18.80;9.23;;;4.70;84.70;;;;;;5018967;28;20629;-61
2022/03/13 10:49:42;;;;;;;18.70;9.40;;;4.70;84.50;;;;;;5027186;28;20662;-60
2022/03/13 10:52:31;;;;;;;20.43;9.53;;;4.80;85.10;;;;;;5009944;28;20176;-61
2022/03/13 10:55:16;;;;;;;19.53;9.37;;;4.70;85.20;;;;;;5018236;28;20192;-59
2022/03/13 10:57:51;;;;;;;17.30;8.80;;;4.80;84.40;;;;;;5020245;28;20211;-61
2022/03/13 11:00:17;;;;;;;19.97;10.43;;;5.00;83.70;;;;;;5023273;28;20219;-63
2022/03/13 11:02:43;;;;;;;22.33;10.30;;;5.00;84.10;;;;;;5021541;28;20184;-63
2022/03/13 11:05:09;;;;;;;25.17;10.17;;;4.80;83.70;;;;;;5021993;28;20187;-61
2022/03/13 11:07:35;;;;;;;22.77;9.77;;;4.80;84.70;;;;;;5021274;28;20530;-61
2022/03/13 11:10:02;;;;;;;30.60;11.57;;;5.20;84.60;;;;;;5023289;28;20198;-60
2022/03/13 11:12:28;;;;;;;25.37;10.10;;;5.40;83.70;;;;;;5020701;28;20226;-62
2022/03/13 11:15:00;;;;;;;20.57;9.83;;;5.70;83.10;;;;;;5004945;28;20559;-55
2022/03/13 11:17:28;;;;;;;19.70;9.20;;;5.80;82.60;;;;;;5020763;28;21116;-59
2022/03/13 11:19:57;;;;;;;21.77;10.77;;;5.80;81.50;;;;;;5022221;28;20195;-60
2022/03/13 11:22:23;;;;;;;22.07;11.10;;;5.40;82.60;;;;;;5020993;28;20217;-70
2022/03/13 11:24:58;;;;;;;24.83;10.53;;;5.30;82.80;;;;;;5004581;28;20209;-72
2022/03/13 11:27:29;;;;;;;23.00;10.43;;;4.90;84.80;;;;;;5021418;28;20302;-69
2022/03/13 11:29:55;;;;;;;25.80;11.87;;;4.70;84.00;;;;;;5022917;28;20176;-69
2022/03/13 11:32:38;;;;;;;22.40;10.50;;;4.60;84.10;;;;;;5022220;28;20183;-68
2022/03/13 11:35:10;;;;;;;14.90;7.27;;;5.00;85.90;;;;;;5022933;28;20186;-73
2022/03/13 11:37:36;;;;;;;23.43;10.23;;;5.40;83.30;;;;;;5022231;28;20226;-72
2022/03/13 11:40:04;;;;;;;25.03;11.07;;;5.00;83.00;;;;;;5004488;28;20540;-68
2022/03/13 11:42:54;;;;;;;26.17;10.77;;;4.70;84.20;;;;;;5020308;28;20986;-76
2022/03/13 11:45:34;;;;;;;22.60;10.67;;;4.80;84.80;;;;;;5019446;28;20318;-64
2022/03/13 11:48:12;;;;;;;25.13;11.43;;;4.90;84.90;;;;;;5021827;28;21224;-63
2022/03/13 11:50:55;;;;;;;25.70;11.70;;;5.60;83.60;;;;;;5022718;28;20200;-61
2022/03/13 11:53:25;;;;;;;28.20;12.60;;;5.70;82.40;;;;;;5021225;28;20229;-62
2022/03/13 11:56:00;;;;;;;34.47;11.90;;;5.90;82.10;;;;;;5022038;28;20236;-63
2022/03/13 11:58:46;;;;;;;25.27;10.40;;;6.20;81.30;;;;;;5021640;28;20499;-68
2022/03/13 12:01:23;;;;;;;22.70;10.27;;;6.50;80.40;;;;;;5021658;28;20282;-68
2022/03/13 12:04:01;;;;;;;29.93;11.70;;;6.40;79.20;;;;;;5022150;28;20201;-68
2022/03/13 12:06:39;;;;;;;29.47;11.90;;;6.20;79.90;;;;;;5022002;28;20404;-62
2022/03/13 12:09:13;;;;;;;25.67;11.60;;;6.40;80.00;;;;;;5020030;28;20206;-61
2022/03/13 12:11:42;;;;;;;23.13;11.20;;;6.70;79.10;;;;;;5008665;28;20192;-62
2022/03/13 12:14:10;;;;;;;20.63;11.07;;;6.60;78.30;;;;;;5020817;28;20197;-64
2022/03/13 12:16:37;;;;;;;22.60;10.93;;;6.50;77.90;;;;;;5023052;28;20311;-61
2022/03/13 12:19:04;;;;;;;26.13;11.80;;;6.60;78.50;;;;;;5020616;28;20225;-63
2022/03/13 12:21:31;;;;;;;22.20;12.13;;;6.80;79.00;;;;;;5022003;28;20184;-64
2022/03/13 12:24:13;;;;;;;25.23;11.83;;;7.00;77.70;;;;;;5020510;28;20219;-64
2022/03/13 12:26:39;;;;;;;27.53;12.37;;;6.80;77.70;;;;;;5020296;28;20183;-60
2022/03/13 12:29:07;;;;;;;25.60;11.73;;;6.30;77.90;;;;;;5020330;28;20194;-65
2022/03/13 12:31:41;;;;;;;22.43;11.67;;;6.20;79.10;;;;;;5021188;28;20639;-63
2022/03/13 12:34:07;;;;;;;26.23;13.47;;;5.90;79.80;;;;;;5021467;28;20288;-63
2022/03/13 12:36:38;;;;;;;29.63;12.83;;;6.00;79.60;;;;;;5003987;28;20202;-60
2022/03/13 12:39:14;;;;;;;31.90;14.00;;;6.00;80.10;;;;;;5019336;28;20221;-62
2022/03/13 12:41:44;;;;;;;26.57;12.53;;;6.20;80.20;;;;;;5022003;28;20642;-63
2022/03/13 12:44:15;;;;;;;33.93;14.30;;;5.90;80.50;;;;;;5020818;28;20678;-61